Time;durP1;ratioP1;P1;durP2;ratioP2;P2;SDS_P1;SDS_P2;PMS_P1;PMS_P2;Temp;Humidity;BMP_temperature;BMP_pressure;BME280_temperature;BME280_humidity;BME280_pressure;Samples;Min_cycle;Max_cycle;Signal;HPM_P1;HPM_P2
2023/11/17 00:02:12;;;;;;;;;;;;;;;16.47;47.56;101081.25;5097492;28;1974;-36
2023/11/17 00:04:38;;;;;;;;;;;;;;;17.44;45.49;101081.78;5097564;28;1070;-35
2023/11/17 00:07:03;;;;;;;;;;;;;;;16.87;46.56;101076.81;5097662;28;1262;-34
2023/11/17 00:09:29;;;;;;;;;;;;;;;16.80;46.88;101075.56;5097695;28;1058;-37
2023/11/17 00:11:54;;;;;;;;;;;;;;;17.68;44.76;101075.69;5097188;28;1237;-36
2023/11/17 00:14:20;;;;;;;;;;;;;;;17.08;45.88;101068.31;5096338;28;1122;-35
2023/11/17 00:16:45;;;;;;;;;;;;;;;16.68;46.83;101079.91;5097242;28;1030;-35
2023/11/17 00:19:11;;;;;;;;;;;;;;;16.53;47.58;101090.63;5097335;28;1129;-35
2023/11/17 00:21:36;;;;;;;;;;;;;;;17.56;45.30;101083.59;5097015;28;1987;-35
2023/11/17 00:24:05;;;;;;;;;;;;;;;17.08;45.87;101081.63;5096965;28;913;-36
2023/11/17 00:26:32;;;;;;;;;;;;;;;16.67;46.90;101087.00;5097107;28;1284;-36
2023/11/17 00:29:00;;;;;;;;;;;;;;;16.74;46.98;101092.75;5095744;28;1285;-36
2023/11/17 00:31:26;;;;;;;;;;;;;;;17.59;45.10;101088.69;5097128;28;1054;-36
2023/11/17 00:33:52;;;;;;;;;;;;;;;16.98;46.17;101086.72;5097256;28;1147;-35
2023/11/17 00:36:18;;;;;;;;;;;;;;;16.71;46.74;101085.00;5096354;28;1054;-36
2023/11/17 00:38:43;;;;;;;;;;;;;;;17.60;44.84;101082.41;5095766;28;1413;-36
2023/11/17 00:41:10;;;;;;;;;;;;;;;17.08;45.97;101061.19;5095858;28;1910;-35
2023/11/17 00:43:36;;;;;;;;;;;;;;;16.72;47.08;101058.34;5097036;28;1079;-35
2023/11/17 00:46:01;;;;;;;;;;;;;;;16.49;47.29;101050.13;5097117;28;1039;-35
2023/11/17 00:48:27;;;;;;;;;;;;;;;17.22;46.01;101041.63;5095506;28;885;-35
2023/11/17 00:50:56;;;;;;;;;;;;;;;17.09;45.94;101041.66;5143583;27;1125;-35
2023/11/17 00:53:26;;;;;;;;;;;;;;;16.67;46.71;101028.56;5096988;28;1150;-35
2023/11/17 00:55:54;;;;;;;;;;;;;;;16.75;47.14;101022.72;5116230;27;1107;-35
2023/11/17 00:58:21;;;;;;;;;;;;;;;17.53;45.06;101024.44;5096626;28;1136;-36
2023/11/17 01:00:46;;;;;;;;;;;;;;;16.88;46.36;101010.28;5096734;28;880;-35
2023/11/17 01:03:12;;;;;;;;;;;;;;;16.59;47.09;101004.34;5094997;28;1893;-35
2023/11/17 01:05:38;;;;;;;;;;;;;;;16.91;46.61;101003.91;5095064;28;1276;-36
2023/11/17 01:08:03;;;;;;;;;;;;;;;17.47;45.19;101004.44;5096493;28;1124;-36
2023/11/17 01:10:29;;;;;;;;;;;;;;;16.88;46.54;101007.63;5096415;28;1071;-35
2023/11/17 01:12:54;;;;;;;;;;;;;;;16.63;46.80;100993.41;5089782;28;868;-36
2023/11/17 01:15:20;;;;;;;;;;;;;;;17.29;45.95;100996.00;5048558;28;1180;-35
2023/11/17 01:17:46;;;;;;;;;;;;;;;17.20;45.65;100994.88;5083349;28;1216;-37
2023/11/17 01:20:12;;;;;;;;;;;;;;;16.72;46.88;100999.03;5082377;28;1142;-35
2023/11/17 01:22:40;;;;;;;;;;;;;;;16.74;47.18;101000.63;5111829;28;1897;-35
2023/11/17 01:25:06;;;;;;;;;;;;;;;17.55;44.99;101001.25;5098648;28;1562;-36
2023/11/17 01:27:32;;;;;;;;;;;;;;;16.97;46.37;100998.16;5102673;28;998;-36
2023/11/17 01:29:57;;;;;;;;;;;;;;;16.60;47.02;100996.28;5102472;28;1110;-34
2023/11/17 01:32:23;;;;;;;;;;;;;;;16.43;47.35;101002.78;5089387;28;1146;-35
2023/11/17 01:34:48;;;;;;;;;;;;;;;17.41;45.63;101000.44;5096244;28;1198;-36
2023/11/17 01:37:14;;;;;;;;;;;;;;;17.10;45.95;100998.16;5102491;28;1039;-35
2023/11/17 01:39:39;;;;;;;;;;;;;;;16.69;46.91;100991.28;5103254;28;1233;-35
2023/11/17 01:42:05;;;;;;;;;;;;;;;16.62;47.34;100991.72;5102590;28;1898;-35
2023/11/17 01:44:31;;;;;;;;;;;;;;;17.35;45.51;100990.25;5102993;28;900;-37
2023/11/17 01:46:56;;;;;;;;;;;;;;;16.82;46.53;100999.22;5102134;28;1097;-34
2023/11/17 01:49:22;;;;;;;;;;;;;;;16.53;47.13;100995.84;5067374;28;1020;-35
2023/11/17 01:51:49;;;;;;;;;;;;;;;16.47;47.32;100992.75;5089667;28;1011;-34
2023/11/17 01:54:15;;;;;;;;;;;;;;;17.60;45.06;100991.13;5102053;28;1052;-36
2023/11/17 01:56:40;;;;;;;;;;;;;;;17.08;45.98;100980.59;5071856;28;1268;-35
2023/11/17 01:59:07;;;;;;;;;;;;;;;16.66;46.74;100960.47;5082647;28;1213;-36
2023/11/17 02:01:34;;;;;;;;;;;;;;;16.46;47.25;100946.78;5064609;28;1981;-36
2023/11/17 02:04:00;;;;;;;;;;;;;;;17.17;45.71;100933.91;5102528;28;1213;-35
2023/11/17 02:06:45;;;;;;;;;;;;;;;17.36;45.11;100931.63;5084462;28;1445;-36
2023/11/17 02:09:30;;;;;;;;;;;;;;;16.78;46.55;100937.53;5062009;28;1551;-35
2023/11/17 02:12:04;;;;;;;;;;;;;;;16.46;47.11;100938.81;5099251;28;1253;-35
2023/11/17 02:14:31;;;;;;;;;;;;;;;16.74;47.12;100938.69;5102870;28;1051;-36
2023/11/17 02:17:00;;;;;;;;;;;;;;;17.54;45.02;100944.53;5084519;28;1300;-36
2023/11/17 02:19:32;;;;;;;;;;;;;;;16.90;46.29;100946.41;5101304;28;1122;-35
2023/11/17 02:21:58;;;;;;;;;;;;;;;16.61;47.06;100936.91;5072087;28;1901;-36
2023/11/17 02:24:26;;;;;;;;;;;;;;;16.97;46.56;100928.22;5102239;28;1133;-35
2023/11/17 02:26:55;;;;;;;;;;;;;;;17.15;45.53;100926.06;5134880;27;1049;-36
2023/11/17 02:29:27;;;;;;;;;;;;;;;16.76;46.54;100924.34;5102479;28;1101;-35
2023/11/17 02:31:53;;;;;;;;;;;;;;;16.55;47.02;100920.56;5117662;28;1228;-35
2023/11/17 02:34:24;;;;;;;;;;;;;;;17.58;44.88;100911.41;5101031;28;1143;-37
2023/11/17 02:36:51;;;;;;;;;;;;;;;17.13;45.65;100910.22;5100605;28;1113;-35
2023/11/17 02:39:26;;;;;;;;;;;;;;;16.72;46.60;100914.03;5097049;28;1101;-35
2023/11/17 02:41:58;;;;;;;;;;;;;;;16.52;47.02;100905.66;5099175;28;1964;-36
2023/11/17 02:44:28;;;;;;;;;;;;;;;17.66;44.58;100907.31;5098767;28;1177;-35
2023/11/17 02:47:02;;;;;;;;;;;;;;;17.10;45.75;100902.47;5099458;28;1157;-35
2023/11/17 02:49:35;;;;;;;;;;;;;;;16.75;46.50;100916.47;5099185;28;915;-35
2023/11/17 02:52:31;;;;;;;;;;;;;;;16.49;46.87;100912.06;5099125;28;1050;-35
2023/11/17 02:54:57;;;;;;;;;;;;;;;16.89;46.51;100907.50;5097211;28;1672;-35
2023/11/17 02:57:23;;;;;;;;;;;;;;;17.36;45.27;100904.19;5099310;28;1150;-35
2023/11/17 02:59:48;;;;;;;;;;;;;;;16.82;46.09;100898.28;5131877;27;1205;-36
2023/11/17 03:02:15;;;;;;;;;;;;;;;16.53;46.78;100889.63;5098829;28;1905;-37
2023/11/17 03:04:43;;;;;;;;;;;;;;;17.43;45.42;100881.50;5097711;28;1216;-35
2023/11/17 03:07:09;;;;;;;;;;;;;;;17.04;45.76;100875.47;5098826;28;1169;-36
2023/11/17 03:09:34;;;;;;;;;;;;;;;16.71;46.53;100876.00;5099394;28;1058;-36
2023/11/17 03:12:00;;;;;;;;;;;;;;;17.62;44.59;100866.81;5098177;28;1221;-36
2023/11/17 03:14:26;;;;;;;;;;;;;;;17.02;45.79;100865.81;5097162;28;1150;-36
2023/11/17 03:16:52;;;;;;;;;;;;;;;16.70;46.66;100858.34;5131391;27;1260;-36
2023/11/17 03:19:17;;;;;;;;;;;;;;;17.09;46.02;100850.28;5098516;28;1065;-36
2023/11/17 03:21:44;;;;;;;;;;;;;;;17.35;45.07;100844.00;5098324;28;1902;-36
2023/11/17 03:24:14;;;;;;;;;;;;;;;16.90;46.00;100853.41;5098272;28;1067;-35
2023/11/17 03:26:43;;;;;;;;;;;;;;;16.59;46.89;100863.59;5098338;28;1042;-36
2023/11/17 03:29:10;;;;;;;;;;;;;;;17.44;45.12;100861.06;5098257;28;1125;-35
2023/11/17 03:31:35;;;;;;;;;;;;;;;16.98;45.87;100866.97;5098297;28;1097;-35
2023/11/17 03:34:06;;;;;;;;;;;;;;;16.64;46.45;100864.09;5098524;28;1138;-36
2023/11/17 03:36:31;;;;;;;;;;;;;;;17.10;46.10;100865.25;5097610;28;1050;-35
2023/11/17 03:38:57;;;;;;;;;;;;;;;17.28;45.37;100872.00;5096696;28;1202;-37
2023/11/17 03:41:22;;;;;;;;;;;;;;;16.83;46.19;100871.59;5097866;28;1906;-35
2023/11/17 03:43:51;;;;;;;;;;;;;;;16.53;46.77;100872.84;5098026;28;1031;-35
2023/11/17 03:46:16;;;;;;;;;;;;;;;17.39;45.28;100861.41;5097786;28;1097;-35
2023/11/17 03:48:42;;;;;;;;;;;;;;;17.17;45.50;100865.66;5097613;28;1126;-37
2023/11/17 03:51:08;;;;;;;;;;;;;;;16.74;46.53;100869.59;5098037;28;1018;-35
2023/11/17 03:53:34;;;;;;;;;;;;;;;16.54;46.77;100874.53;5097901;28;1089;-35
2023/11/17 03:56:00;;;;;;;;;;;;;;;16.97;46.45;100873.25;5130728;27;1217;-35
2023/11/17 03:58:27;;;;;;;;;;;;;;;17.42;44.88;100858.50;5097775;28;1070;-37
2023/11/17 04:00:53;;;;;;;;;;;;;;;16.85;46.07;100848.44;5097433;28;864;-35
2023/11/17 04:03:19;;;;;;;;;;;;;;;17.44;45.10;100837.13;5097803;28;1973;-36
2023/11/17 04:05:45;;;;;;;;;;;;;;;17.17;45.56;100828.44;5096845;28;1397;-35
2023/11/17 04:08:10;;;;;;;;;;;;;;;16.74;46.60;100833.28;5096381;28;1106;-35
2023/11/17 04:10:36;;;;;;;;;;;;;;;16.84;46.64;100843.22;5087512;28;1091;-37
2023/11/17 04:13:01;;;;;;;;;;;;;;;17.41;44.87;100837.34;5091764;28;1236;-37
2023/11/17 04:15:27;;;;;;;;;;;;;;;16.86;46.18;100828.03;5097737;28;1030;-37
2023/11/17 04:17:52;;;;;;;;;;;;;;;16.57;46.77;100817.69;5096145;28;1083;-39
2023/11/17 04:20:19;;;;;;;;;;;;;;;16.41;46.88;100818.81;5090514;28;1316;-35
2023/11/17 04:22:44;;;;;;;;;;;;;;;16.74;46.76;100822.66;5095836;28;1971;-36
2023/11/17 04:25:10;;;;;;;;;;;;;;;17.44;44.85;100826.47;5096961;28;1011;-37
2023/11/17 04:27:38;;;;;;;;;;;;;;;16.88;46.35;100823.47;5090667;28;2589;-35
2023/11/17 04:30:04;;;;;;;;;;;;;;;16.55;46.76;100816.97;5096744;28;946;-35
2023/11/17 04:32:30;;;;;;;;;;;;;;;17.11;45.87;100807.66;5097210;28;1014;-35
2023/11/17 04:34:55;;;;;;;;;;;;;;;16.95;46.10;100810.56;5097015;28;1236;-34
2023/11/17 04:37:21;;;;;;;;;;;;;;;16.57;46.71;100799.09;5096072;28;1105;-34
2023/11/17 04:39:46;;;;;;;;;;;;;;;17.04;46.01;100793.94;5097094;28;1104;-35
2023/11/17 04:42:12;;;;;;;;;;;;;;;17.38;44.88;100791.41;5091907;28;1982;-35
2023/11/17 04:44:38;;;;;;;;;;;;;;;16.84;46.25;100798.06;5082250;28;1208;-35
2023/11/17 04:47:04;;;;;;;;;;;;;;;16.55;47.09;100793.06;5096556;28;1050;-37
2023/11/17 04:49:29;;;;;;;;;;;;;;;17.40;45.21;100798.44;5096417;28;924;-37
2023/11/17 04:51:55;;;;;;;;;;;;;;;17.46;45.23;100800.63;5096799;28;1107;-39
2023/11/17 04:54:20;;;;;;;;;;;;;;;18.08;43.46;100797.69;5096499;28;1166;-41
2023/11/17 04:56:46;;;;;;;;;;;;;;;17.68;43.91;100794.53;5095878;28;2093;-38
2023/11/17 04:59:12;;;;;;;;;;;;;;;17.50;44.86;100797.63;5096588;28;1128;-40
2023/11/17 05:01:38;;;;;;;;;;;;;;;17.11;45.47;100791.69;5095295;28;1898;-42
2023/11/17 05:04:03;;;;;;;;;;;;;;;16.74;46.36;100803.19;5096650;28;1042;-44
2023/11/17 05:06:29;;;;;;;;;;;;;;;16.65;47.30;100797.59;5096313;28;1158;-48
2023/11/17 05:08:54;;;;;;;;;;;;;;;17.40;45.19;100801.94;5096364;28;1134;-38
2023/11/17 05:11:23;;;;;;;;;;;;;;;16.89;46.27;100793.25;5128655;27;1201;-39
2023/11/17 05:13:48;;;;;;;;;;;;;;;16.58;46.97;100791.03;5086913;28;896;-40
2023/11/17 05:16:14;;;;;;;;;;;;;;;16.65;46.99;100778.16;5096364;28;1027;-41
2023/11/17 05:18:40;;;;;;;;;;;;;;;17.42;45.23;100769.91;5082526;28;1051;-38
2023/11/17 05:21:08;;;;;;;;;;;;;;;16.83;46.30;100772.47;5095718;28;1906;-39
2023/11/17 05:23:34;;;;;;;;;;;;;;;16.58;46.87;100777.75;5082861;28;971;-37
2023/11/17 05:26:00;;;;;;;;;;;;;;;16.77;46.74;100773.75;5094668;28;1252;-38
2023/11/17 05:28:27;;;;;;;;;;;;;;;17.56;44.92;100771.50;5095643;28;2224;-38
2023/11/17 05:30:55;;;;;;;;;;;;;;;17.35;45.72;100774.88;5097095;28;1005;-38
2023/11/17 05:33:21;;;;;;;;;;;;;;;16.61;46.70;100774.88;5093517;28;1308;-38
2023/11/17 05:35:47;;;;;;;;;;;;;;;16.13;46.86;100771.16;5095888;28;1077;-39
2023/11/17 05:38:13;;;;;;;;;;;;;;;15.98;46.13;100773.09;5095824;28;932;-38
2023/11/17 05:40:40;;;;;;;;;;;;;;;15.69;46.25;100762.69;5095625;28;1030;-38
2023/11/17 05:43:06;;;;;;;;;;;;;;;15.60;45.36;100758.03;5094698;28;1976;-38
2023/11/17 05:45:31;;;;;;;;;;;;;;;15.49;45.35;100756.09;5095460;28;1022;-40
2023/11/17 05:47:57;;;;;;;;;;;;;;;15.51;44.74;100755.06;5095261;28;1034;-41
2023/11/17 05:50:22;;;;;;;;;;;;;;;15.35;44.75;100757.06;5095497;28;887;-44
2023/11/17 05:52:48;;;;;;;;;;;;;;;16.24;43.58;100753.63;5095690;28;1123;-43
2023/11/17 05:55:16;;;;;;;;;;;;;;;15.54;43.91;100749.53;5098075;28;1046;-43
2023/11/17 05:57:42;;;;;;;;;;;;;;;15.34;44.03;100744.75;5099459;28;1923;-41
2023/11/17 06:00:09;;;;;;;;;;;;;;;15.24;43.95;100748.03;5095858;28;1154;-42
2023/11/17 06:02:37;;;;;;;;;;;;;;;15.19;44.19;100747.47;5094357;28;1910;-42
2023/11/17 06:05:02;;;;;;;;;;;;;;;15.05;43.80;100741.31;5095395;28;1182;-38
2023/11/17 06:07:28;;;;;;;;;;;;;;;15.03;43.59;100745.84;5095986;28;1062;-40
2023/11/17 06:09:54;;;;;;;;;;;;;;;14.93;43.76;100753.56;5095409;28;1127;-39
2023/11/17 06:12:19;;;;;;;;;;;;;;;14.91;43.58;100750.16;5081228;28;1213;-46
2023/11/17 06:14:45;;;;;;;;;;;;;;;14.87;43.78;100747.81;5078577;28;1110;-40
2023/11/17 06:17:11;;;;;;;;;;;;;;;14.86;43.28;100757.56;5104343;28;1201;-42
2023/11/17 06:19:37;;;;;;;;;;;;;;;14.70;43.46;100762.97;5079125;28;1166;-43
2023/11/17 06:22:06;;;;;;;;;;;;;;;14.67;43.30;100755.22;5087597;28;1979;-43
2023/11/17 06:24:32;;;;;;;;;;;;;;;14.63;43.07;100754.56;5078620;28;1031;-44
2023/11/17 06:26:59;;;;;;;;;;;;;;;14.60;43.37;100754.78;5085587;28;2007;-42
2023/11/17 06:29:25;;;;;;;;;;;;;;;14.61;43.23;100747.69;5078784;28;988;-41
2023/11/17 06:31:51;;;;;;;;;;;;;;;14.58;43.16;100740.78;5084108;28;1174;-41
2023/11/17 06:34:17;;;;;;;;;;;;;;;14.59;42.83;100736.34;5078169;28;1054;-46
2023/11/17 06:36:44;;;;;;;;;;;;;;;14.48;43.20;100743.16;5083108;28;1202;-38
2023/11/17 06:39:18;;;;;;;;;;;;;;;14.90;43.99;100737.00;5077900;28;1083;-44
2023/11/17 06:41:43;;;;;;;;;;;;;;;15.50;45.69;100729.47;5082842;28;1906;-38
2023/11/17 06:44:09;;;;;;;;;;;;;;;14.99;45.52;100723.16;5078603;28;1036;-45
2023/11/17 06:46:36;;;;;;;;;;;;;;;14.75;45.02;100717.66;5078474;28;1055;-38
2023/11/17 06:49:02;;;;;;;;;;;;;;;14.76;44.25;100717.56;5077898;28;1050;-40
2023/11/17 06:51:31;;;;;;;;;;;;;;;14.65;44.03;100723.56;5077847;28;922;-44
2023/11/17 06:53:57;;;;;;;;;;;;;;;15.56;45.45;100717.63;5078244;28;1060;-43
2023/11/17 06:56:22;;;;;;;;;;;;;;;15.16;45.87;100713.25;5077105;28;2170;-43
2023/11/17 06:58:48;;;;;;;;;;;;;;;14.85;45.64;100713.47;5077675;28;995;-43
2023/11/17 07:01:14;;;;;;;;;;;;;;;14.76;45.02;100701.69;5077679;28;1992;-43
2023/11/17 07:03:42;;;;;;;;;;;;;;;14.68;44.67;100706.63;5059970;28;1010;-43
2023/11/17 07:06:08;;;;;;;;;;;;;;;14.67;44.30;100700.47;5078419;28;765;-42
2023/11/17 07:08:33;;;;;;;;;;;;;;;14.58;43.71;100695.78;5078277;28;1179;-45
2023/11/17 07:10:59;;;;;;;;;;;;;;;14.51;43.85;100692.72;5086119;28;1154;-44
2023/11/17 07:13:25;;;;;;;;;;;;;;;15.45;45.22;100691.84;5097693;28;1515;-42
2023/11/17 07:15:53;;;;;;;;;;;;;;;15.01;45.26;100685.97;5088063;28;1106;-44
2023/11/17 07:18:20;;;;;;;;;;;;;;;14.67;45.28;100679.31;5098588;28;979;-43
2023/11/17 07:20:46;;;;;;;;;;;;;;;14.65;44.55;100672.41;5098470;28;1046;-46
2023/11/17 07:23:11;;;;;;;;;;;;;;;14.56;44.43;100663.28;5098475;28;1914;-42
2023/11/17 07:25:41;;;;;;;;;;;;;;;14.54;44.28;100666.03;5097656;28;1015;-40
2023/11/17 07:28:06;;;;;;;;;;;;;;;14.90;44.70;100661.06;5098792;28;2104;-38
2023/11/17 07:30:34;;;;;;;;;;;;;;;15.23;45.43;100658.84;5098213;28;1099;-43
2023/11/17 07:32:59;;;;;;;;;;;;;;;14.86;45.51;100653.44;5098332;28;1201;-38
2023/11/17 07:35:26;;;;;;;;;;;;;;;14.74;45.19;100645.31;5097980;28;1158;-38
2023/11/17 07:37:52;;;;;;;;;;;;;;;14.65;44.66;100646.78;5097999;28;1059;-42
2023/11/17 07:40:18;;;;;;;;;;;;;;;14.52;44.17;100643.25;5097973;28;1066;-46
2023/11/17 07:42:43;;;;;;;;;;;;;;;14.51;43.95;100636.25;5097737;28;1986;-37
2023/11/17 07:45:10;;;;;;;;;;;;;;;14.48;43.80;100631.19;5098014;28;1082;-37
2023/11/17 07:47:36;;;;;;;;;;;;;;;15.28;44.91;100627.59;5097508;28;1130;-38
2023/11/17 07:50:07;;;;;;;;;;;;;;;14.69;45.43;100628.88;5097793;28;1105;-37
2023/11/17 07:52:33;;;;;;;;;;;;;;;14.67;44.92;100630.78;5086814;28;1146;-38
2023/11/17 07:54:59;;;;;;;;;;;;;;;14.48;44.44;100613.47;5097065;28;1118;-39
2023/11/17 07:57:25;;;;;;;;;;;;;;;14.51;44.09;100618.59;5097350;28;2378;-38
2023/11/17 07:59:50;;;;;;;;;;;;;;;14.39;44.00;100614.94;5095244;28;1142;-39
2023/11/17 08:02:16;;;;;;;;;;;;;;;14.43;43.39;100616.44;5096934;28;1913;-37
2023/11/17 08:04:42;;;;;;;;;;;;;;;14.39;43.54;100619.38;5097222;28;1351;-39
2023/11/17 08:07:07;;;;;;;;;;;;;;;14.34;43.77;100617.03;5093202;28;1189;-37
2023/11/17 08:09:34;;;;;;;;;;;;;;;15.55;45.02;100613.34;5094508;28;1157;-37
2023/11/17 08:12:00;;;;;;;;;;;;;;;14.89;45.17;100611.69;5097104;28;1181;-39
2023/11/17 08:14:26;;;;;;;;;;;;;;;14.68;45.01;100611.31;5096721;28;1087;-39
2023/11/17 08:16:52;;;;;;;;;;;;;;;14.59;44.68;100609.28;5096672;28;1085;-39
2023/11/17 08:19:18;;;;;;;;;;;;;;;14.44;44.20;100602.28;5097394;28;1089;-42
2023/11/17 08:21:43;;;;;;;;;;;;;;;14.43;43.89;100605.00;5097378;28;1968;-42
2023/11/17 08:24:09;;;;;;;;;;;;;;;14.31;43.65;100604.84;5097336;28;1073;-38
2023/11/17 08:26:35;;;;;;;;;;;;;;;15.37;44.77;100612.00;5094872;28;2061;-38
2023/11/17 08:29:01;;;;;;;;;;;;;;;14.72;45.67;100610.16;5088442;28;987;-45
2023/11/17 08:31:26;;;;;;;;;;;;;;;14.57;44.95;100606.72;5095893;28;1062;-42
2023/11/17 08:33:52;;;;;;;;;;;;;;;14.51;44.44;100605.34;5096797;28;1058;-40
2023/11/17 08:36:19;;;;;;;;;;;;;;;14.42;44.39;100601.50;5095899;28;1386;-39
2023/11/17 08:38:45;;;;;;;;;;;;;;;14.31;44.10;100596.09;5096654;28;1139;-43
2023/11/17 08:41:11;;;;;;;;;;;;;;;15.46;45.49;100591.94;5096871;28;1991;-45
2023/11/17 08:43:37;;;;;;;;;;;;;;;14.88;45.81;100582.66;5097052;28;1081;-42
2023/11/17 08:46:04;;;;;;;;;;;;;;;14.65;45.74;100580.59;5096568;28;1174;-38
2023/11/17 08:48:30;;;;;;;;;;;;;;;14.61;44.63;100587.06;5096266;28;1010;-42
2023/11/17 08:50:56;;;;;;;;;;;;;;;14.53;44.34;100576.97;5088660;28;1035;-37
2023/11/17 08:53:23;;;;;;;;;;;;;;;14.39;44.21;100569.09;5076878;28;1090;-40
2023/11/17 08:55:50;;;;;;;;;;;;;;;15.43;45.31;100574.47;5093291;28;1356;-40
2023/11/17 08:58:16;;;;;;;;;;;;;;;14.80;45.92;100568.13;5096079;28;2215;-39
2023/11/17 09:00:41;;;;;;;;;;;;;;;14.59;45.65;100566.91;5096218;28;1054;-43
2023/11/17 09:03:07;;;;;;;;;;;;;;;14.54;44.80;100561.94;5095961;28;1914;-36
2023/11/17 09:05:32;;;;;;;;;;;;;;;14.53;44.27;100562.91;5096424;28;1109;-37
2023/11/17 09:07:59;;;;;;;;;;;;;;;14.36;44.25;100553.44;5095898;28;1034;-44
2023/11/17 09:10:26;;;;;;;;;;;;;;;14.41;44.18;100538.94;5096084;28;1203;-44
2023/11/17 09:12:53;;;;;;;;;;;;;;;15.15;45.27;100542.81;5097011;28;1163;-43
2023/11/17 09:15:23;;;;;;;;;;;;;;;14.70;45.43;100529.97;5092933;28;1197;-38
2023/11/17 09:17:51;;;;;;;;;;;;;;;14.59;44.80;100525.41;5096797;28;1118;-37
2023/11/17 09:20:17;;;;;;;;;;;;;;;14.47;44.84;100518.28;5096754;28;1113;-39
2023/11/17 09:22:46;;;;;;;;;;;;;;;15.00;45.41;100504.13;5096283;28;1902;-40
2023/11/17 09:25:14;;;;;;;;;;;;;;;15.12;45.56;100484.72;5096615;28;1201;-38
2023/11/17 09:27:41;;;;;;;;;;;;;;;14.85;45.19;100484.91;5127805;28;2026;-40
2023/11/17 09:30:07;;;;;;;;;;;;;;;14.66;44.71;100481.66;5096043;28;1046;-40
2023/11/17 09:32:32;;;;;;;;;;;;;;;15.39;45.21;100477.56;5096253;28;1073;-41
2023/11/17 09:34:58;;;;;;;;;;;;;;;14.95;45.35;100469.19;5096451;28;1182;-40
2023/11/17 09:37:23;;;;;;;;;;;;;;;14.69;45.11;100464.72;5096445;28;1030;-38
2023/11/17 09:39:49;;;;;;;;;;;;;;;14.54;44.58;100456.91;5095998;28;914;-39
2023/11/17 09:42:15;;;;;;;;;;;;;;;14.57;44.51;100462.00;5096245;28;1900;-37
2023/11/17 09:44:41;;;;;;;;;;;;;;;14.48;44.10;100449.38;5129190;28;1073;-39
2023/11/17 09:47:18;;;;;;;;;;;;;;;14.49;43.46;100450.22;5097392;28;1556;-41
2023/11/17 09:49:44;;;;;;;;;;;;;;;14.37;43.63;100442.19;5100216;28;1078;-40
2023/11/17 09:52:10;;;;;;;;;;;;;;;14.30;43.71;100449.69;5132582;27;1034;-38
2023/11/17 09:54:35;;;;;;;;;;;;;;;14.90;44.53;100438.56;5133322;27;1078;-38
2023/11/17 09:57:01;;;;;;;;;;;;;;;15.07;45.18;100433.88;5132947;27;2083;-43
2023/11/17 09:59:27;;;;;;;;;;;;;;;14.74;45.40;100428.19;5122987;27;1161;-40
2023/11/17 10:01:53;;;;;;;;;;;;;;;14.54;45.01;100417.19;5100044;28;1970;-45
2023/11/17 10:04:20;;;;;;;;;;;;;;;14.48;44.50;100406.19;5100142;28;1202;-38
2023/11/17 10:06:45;;;;;;;;;;;;;;;14.53;44.32;100404.91;5123581;27;1117;-39
2023/11/17 10:09:11;;;;;;;;;;;;;;;15.38;44.79;100412.25;5123131;27;1149;-39
2023/11/17 10:11:38;;;;;;;;;;;;;;;14.95;45.19;100402.97;5132207;27;1228;-37
2023/11/17 10:14:04;;;;;;;;;;;;;;;14.68;45.20;100410.94;5099369;28;1083;-41
2023/11/17 10:16:29;;;;;;;;;;;;;;;14.60;44.56;100413.25;5088662;28;1003;-39
2023/11/17 10:18:57;;;;;;;;;;;;;;;14.51;44.24;100406.84;5099349;28;1026;-40
2023/11/17 10:21:23;;;;;;;;;;;;;;;14.46;44.05;100411.59;5095852;28;1910;-40
2023/11/17 10:23:50;;;;;;;;;;;;;;;14.33;44.13;100411.56;5095700;28;1153;-43
2023/11/17 10:26:17;;;;;;;;;;;;;;;15.26;45.02;100406.91;5096196;28;2499;-44
2023/11/17 10:28:43;;;;;;;;;;;;;;;14.97;45.73;100398.41;5092008;28;1368;-40
2023/11/17 10:31:11;;;;;;;;;;;;;;;14.72;45.11;100393.03;5084545;28;1308;-41
2023/11/17 10:33:42;;;;;;;;;;;;;;;14.56;44.98;100386.16;5094698;28;1392;-38
2023/11/17 10:36:11;;;;;;;;;;;;;;;14.54;44.43;100387.22;5084197;28;1372;-40
2023/11/17 10:38:38;;;;;;;;;;;;;;;14.39;44.28;100383.84;5099495;28;1094;-38
2023/11/17 10:41:26;;;;;;;;;;;;;;;14.38;44.00;100390.13;5098801;28;1045;-38
2023/11/17 10:43:53;;;;;;;;;;;;;;;15.21;45.08;100387.84;5099522;28;987;-39
2023/11/17 10:46:22;;;;;;;;;;;;;;;14.73;45.27;100372.69;5099116;28;1018;-39
2023/11/17 10:48:48;;;;;;;;;;;;;;;14.57;45.15;100356.09;5092646;28;1236;-42
2023/11/17 10:51:17;;;;;;;;;;;;;;;14.51;44.46;100348.59;5094483;28;1161;-38
2023/11/17 10:53:43;;;;;;;;;;;;;;;14.47;43.97;100344.47;5090732;28;1172;-41
2023/11/17 10:56:19;;;;;;;;;;;;;;;14.40;44.14;100348.50;5095182;28;2526;-38
2023/11/17 10:58:52;;;;;;;;;;;;;;;14.31;43.59;100347.34;5083572;28;1235;-45
2023/11/17 11:01:18;;;;;;;;;;;;;;;14.32;43.60;100354.31;5121525;27;1972;-43
2023/11/17 11:03:44;;;;;;;;;;;;;;;14.87;44.82;100337.31;5129017;27;1137;-41
2023/11/17 11:06:09;;;;;;;;;;;;;;;15.23;44.95;100335.56;5098444;28;994;-44
2023/11/17 11:08:35;;;;;;;;;;;;;;;14.74;45.55;100324.06;5098153;28;1170;-40
2023/11/17 11:11:03;;;;;;;;;;;;;;;14.60;44.97;100319.78;5121860;27;1197;-47
2023/11/17 11:13:29;;;;;;;;;;;;;;;14.53;44.36;100300.84;5092257;28;1098;-39
2023/11/17 11:16:05;;;;;;;;;;;;;;;14.38;44.66;100305.44;5088922;28;1213;-45
2023/11/17 11:18:35;;;;;;;;;;;;;;;14.40;43.96;100299.06;5098205;28;979;-39
2023/11/17 11:21:05;;;;;;;;;;;;;;;14.32;44.00;100312.00;5119891;27;1276;-42
2023/11/17 11:23:31;;;;;;;;;;;;;;;15.32;44.83;100311.97;5098200;28;1906;-42
2023/11/17 11:25:58;;;;;;;;;;;;;;;14.73;45.25;100301.22;5098694;28;975;-42
2023/11/17 11:28:23;;;;;;;;;;;;;;;14.50;45.19;100280.72;5097641;28;2679;-40
2023/11/17 11:30:49;;;;;;;;;;;;;;;14.45;44.23;100288.13;5096626;28;1155;-44
2023/11/17 11:33:20;;;;;;;;;;;;;;;14.31;44.39;100289.97;5097980;28;991;-40
2023/11/17 11:35:45;;;;;;;;;;;;;;;15.27;45.33;100297.28;5098054;28;967;-41
2023/11/17 11:38:11;;;;;;;;;;;;;;;14.81;45.26;100283.81;5097833;28;1177;-48
2023/11/17 11:40:41;;;;;;;;;;;;;;;14.56;44.95;100285.56;5097387;28;991;-44
2023/11/17 11:43:07;;;;;;;;;;;;;;;14.50;44.63;100285.16;5097295;28;1974;-38
2023/11/17 11:45:34;;;;;;;;;;;;;;;14.44;44.14;100278.53;5097683;28;1150;-38
2023/11/17 11:48:00;;;;;;;;;;;;;;;14.38;44.11;100278.97;5089496;28;1241;-38
2023/11/17 11:50:25;;;;;;;;;;;;;;;14.33;44.01;100280.13;5096670;28;1134;-37
2023/11/17 11:53:09;;;;;;;;;;;;;;;14.31;43.54;100267.97;5130003;27;1104;-43
2023/11/17 11:55:35;;;;;;;;;;;;;;;14.21;43.60;100257.19;5119158;27;1141;-44
2023/11/17 11:58:01;;;;;;;;;;;;;;;15.11;44.38;100265.81;5123075;27;2396;-39
2023/11/17 12:00:26;;;;;;;;;;;;;;;14.75;45.09;100259.56;5090097;28;1070;-40
2023/11/17 12:02:59;;;;;;;;;;;;;;;14.45;45.19;100251.94;5097424;28;1913;-40
2023/11/17 12:05:28;;;;;;;;;;;;;;;14.38;44.78;100245.38;5096477;28;859;-43
2023/11/17 12:07:55;;;;;;;;;;;;;;;14.45;44.55;100229.91;5097441;28;1098;-42
2023/11/17 12:10:20;;;;;;;;;;;;;;;15.31;44.92;100234.31;5130168;27;1162;-42
2023/11/17 12:12:47;;;;;;;;;;;;;;;14.83;45.48;100230.75;5088927;28;1030;-42
2023/11/17 12:15:12;;;;;;;;;;;;;;;14.57;45.02;100220.25;5095626;28;1125;-46
2023/11/17 12:17:50;;;;;;;;;;;;;;;14.50;44.52;100221.63;5088326;28;1114;-42
2023/11/17 12:20:19;;;;;;;;;;;;;;;14.42;44.11;100222.22;5092942;28;1130;-39
2023/11/17 12:22:57;;;;;;;;;;;;;;;14.35;44.22;100224.44;5079408;28;1906;-42
2023/11/17 12:25:23;;;;;;;;;;;;;;;15.21;45.15;100214.75;5097082;28;1264;-43
2023/11/17 12:27:48;;;;;;;;;;;;;;;14.71;45.32;100213.09;5084566;28;2042;-40
2023/11/17 12:30:14;;;;;;;;;;;;;;;14.57;44.85;100199.94;5089853;28;936;-39
2023/11/17 12:32:40;;;;;;;;;;;;;;;14.47;44.36;100198.91;5090673;28;1149;-40
2023/11/17 12:35:06;;;;;;;;;;;;;;;14.48;44.20;100210.34;5130020;27;1299;-40
2023/11/17 12:37:32;;;;;;;;;;;;;;;14.42;43.61;100201.88;5096185;28;1356;-42
2023/11/17 12:39:58;;;;;;;;;;;;;;;14.28;43.80;100200.22;5097244;28;1268;-41
2023/11/17 12:42:24;;;;;;;;;;;;;;;14.23;43.69;100201.53;5095550;28;1906;-38
2023/11/17 12:44:50;;;;;;;;;;;;;;;15.21;44.49;100204.16;5097222;28;1347;-40
2023/11/17 12:47:15;;;;;;;;;;;;;;;14.66;45.21;100189.63;5096860;28;1304;-41